Лахденпохья

Карта отелей и гостиниц, располагающихся рядом с аэропортом Лахденпохья :

Лахденпохья Республика Карелия 61° 31' 17.49" N, 30° 12' 32.7312" E
Код аэродрома ИКАО
H387
Код аэродрома RU
Х387
Координаты
N61.52152° E030.20909°
Превышение над уровнем моря
13
Основная полоса
Курс магнитный
Длина основной ВПП
12
Ширина основной ВПП
12
Покрытие основной ВПП
Твёрдое
Освещение ВПП
Нет
Тип: 
Вертодром
Класс аэродрома: 
Принадлежность: 
ГА
Статус: 
Действующий
Сайт: 
E-mail аэродрома: 
Страна: 
Россия
Регион: 
Республика Карелия
Город: 
Дополнительная информация: 
Владелец ПП: нет данных.

Найти трансфер

С помощью этой формы Вы можете найти трансфер из аэропорта Лахденпохья в город, аэропорт или вокзал:

Карта места

Javascript is required to view this map.

Погода в аэропортах:

Авиационная погода в Стамбуле

Регион: 
Погода METAR: 
LTFM 241350Z 03020KT 9999 -SHRA SCT012 BKN025 13/09 Q1028 NOSIG RMK RWY17L 03019KT RWY34L 02017KT RWY16R 03019KT RWY36 03019KT RWY18 03016KT
Время наблюдения
2021-10-24T13:50:00Z
Температура C
13.0
Точка росы
9.0
Направление ветра
30
Скорость ветра (узлы)
20
Метео видимость
6.21
Явления погоды
-SHRA
Условия полета
MVFR

Авиационная погода в Берлевоге

Регион: 
Погода METAR: 
ENBV 221920Z 01015KT 9999 VCSH FEW008 SCT030 BKN045 00/M06 Q1000
Время наблюдения
2021-10-22T19:20:00Z
Температура C
0.0
Точка росы
-6.0
Направление ветра
10
Скорость ветра (узлы)
15
Метео видимость
6.21
Явления погоды
VCSH
Условия полета
VFR

Авиационная погода в аэропорту Алыкель

Регион: 
Погода METAR: 
UOOO 241400Z 04006MPS 4100 -SN BR SCT030 M04/M04 Q0987 R01/491048 NOSIG RMK QFE726/0968
Время наблюдения
2021-10-24T14:00:00Z
Температура C
-4.0
Точка росы
-4.0
Направление ветра
40
Скорость ветра (узлы)
12
Метео видимость
2.55
Явления погоды
-SN BR
Условия полета
IFR
Аэропорт подробнее: 

Авиационная погода в Вардё

Регион: 
Погода METAR: 
ENSS 221930Z 036018KT 7000 -SHSN DRSN VV012 M00/M02 Q0998 RMK WIND 500FT 01024KT
Время наблюдения
2021-10-22T19:30:00Z
Температура C
0.0
Точка росы
-2.0
Направление ветра
36
Скорость ветра (узлы)
18
Метео видимость
4.35
Явления погоды
-SHSN DRSN
Условия полета
LIFR